createdAt,value
2022-10-02T00:01:33.742Z,95073.28
2022-10-02T00:04:02.723Z,95073.28
2022-10-02T00:06:39.844Z,95070.56
2022-10-02T00:09:12.333Z,95074.81
2022-10-02T00:11:44.776Z,95067.06
2022-10-02T00:14:16.826Z,95066.97
2022-10-02T00:16:48.432Z,95070.47
2022-10-02T00:19:18.405Z,95069.63
2022-10-02T00:21:59.007Z,95074.66
2022-10-02T00:24:32.161Z,95074.56
2022-10-02T00:27:06.525Z,95084.63
2022-10-02T00:29:46.979Z,95084.22
2022-10-02T00:32:24.153Z,95083.91
2022-10-02T00:35:30.562Z,95084.69
2022-10-02T00:38:04.595Z,95092.47
2022-10-02T00:41:00.080Z,95107.28
2022-10-02T00:43:35.889Z,95091.75
2022-10-02T00:46:23.401Z,95102.25
2022-10-02T00:49:08.765Z,95117.03
2022-10-02T00:51:53.784Z,95115.06
2022-10-02T00:54:32.685Z,95124.00
2022-10-02T00:57:10.127Z,95117.84
2022-10-02T00:59:51.559Z,95117.44
2022-10-02T01:02:58.274Z,95120.16
2022-10-02T01:05:27.438Z,95112.00
2022-10-02T01:07:57.072Z,95115.84
2022-10-02T01:10:26.688Z,95116.56
2022-10-02T01:12:56.077Z,95105.69
2022-10-02T01:15:32.304Z,95119.31
2022-10-02T01:18:02.168Z,95121.56
2022-10-02T01:20:39.076Z,95123.81
2022-10-02T01:23:18.420Z,95121.00
2022-10-02T01:25:48.264Z,95124.78
2022-10-02T01:28:16.399Z,95125.78
2022-10-02T01:30:47.420Z,95121.78
2022-10-02T01:33:16.008Z,95133.88
2022-10-02T01:35:44.811Z,95147.00
2022-10-02T01:38:15.660Z,95144.41
2022-10-02T01:40:43.471Z,95146.47
2022-10-02T01:43:15.932Z,95142.03
2022-10-02T01:45:58.940Z,95142.91
2022-10-02T01:48:40.790Z,95147.78
2022-10-02T01:51:24.868Z,95149.66
2022-10-02T01:54:00.384Z,95158.16
2022-10-02T01:56:36.624Z,95156.53
2022-10-02T01:59:14.972Z,95150.25
2022-10-02T02:01:53.770Z,95152.47
2022-10-02T02:04:25.369Z,95155.53
2022-10-02T02:07:00.437Z,95152.47
2022-10-02T02:09:33.635Z,95163.69
2022-10-02T02:12:09.509Z,95167.06
2022-10-02T02:14:43.729Z,95157.59
2022-10-02T02:17:16.192Z,95162.97
2022-10-02T02:19:50.140Z,95161.22
2022-10-02T02:22:23.867Z,95175.97
2022-10-02T02:24:56.983Z,95170.03
2022-10-02T02:27:28.605Z,95171.78
2022-10-02T02:30:03.799Z,95187.22
2022-10-02T02:32:36.731Z,95186.34
2022-10-02T02:35:11.575Z,95194.78
2022-10-02T02:37:41.805Z,95204.72
2022-10-02T02:40:14.809Z,95199.69
2022-10-02T02:42:44.544Z,95197.03
2022-10-02T02:45:17.610Z,95200.03
2022-10-02T02:47:50.184Z,95194.47
2022-10-02T02:50:22.860Z,95199.78
2022-10-02T02:52:56.264Z,95208.28
2022-10-02T02:55:30.279Z,95215.19
2022-10-02T02:58:03.428Z,95226.03
2022-10-02T03:00:32.890Z,95231.03
2022-10-02T03:03:00.783Z,95232.25
2022-10-02T03:05:30.664Z,95241.50
2022-10-02T03:08:02.790Z,95253.94
2022-10-02T03:10:45.387Z,95256.91
2022-10-02T03:13:28.453Z,95266.69
2022-10-02T03:16:11.810Z,95250.06
2022-10-02T03:18:57.314Z,95267.41
2022-10-02T03:21:31.587Z,95264.78
2022-10-02T03:24:06.551Z,95279.81
2022-10-02T03:26:41.143Z,95277.13
2022-10-02T03:29:15.105Z,95267.03
2022-10-02T03:31:45.534Z,95268.63
2022-10-02T03:34:14.382Z,95271.69
2022-10-02T03:36:42.496Z,95282.16
2022-10-02T03:39:26.882Z,95277.13
2022-10-02T03:41:55.562Z,95276.75
2022-10-02T03:44:23.419Z,95268.97
2022-10-02T03:46:52.640Z,95283.75
2022-10-02T03:49:20.489Z,95280.59
2022-10-02T03:51:48.307Z,95277.13
2022-10-02T03:54:19.889Z,95292.59
2022-10-02T03:56:55.463Z,95294.88
2022-10-02T03:59:36.056Z,95321.50
2022-10-02T04:02:10.535Z,95311.44
2022-10-02T04:04:46.832Z,95306.41
2022-10-02T04:07:23.737Z,95320.38
2022-10-02T04:10:01.040Z,95328.50
2022-10-02T04:12:34.220Z,95335.78
2022-10-02T04:15:07.841Z,95337.16
2022-10-02T04:17:44.356Z,95334.88
2022-10-02T04:20:17.735Z,95348.72
2022-10-02T04:22:50.745Z,95359.28
2022-10-02T04:25:21.205Z,95348.72
2022-10-02T04:27:54.528Z,95360.06
2022-10-02T04:30:22.573Z,95357.28
2022-10-02T04:32:52.184Z,95361.03
2022-10-02T04:35:29.775Z,95364.19
2022-10-02T04:38:16.508Z,95367.41
2022-10-02T04:40:56.312Z,95355.25
2022-10-02T04:43:44.066Z,95374.78
2022-10-02T04:46:26.686Z,95375.13
2022-10-02T04:49:21.609Z,95375.91
2022-10-02T04:52:02.754Z,95391.53
2022-10-02T04:54:48.218Z,95383.72
2022-10-02T04:57:34.594Z,95392.84
2022-10-02T05:00:09.389Z,95406.91
2022-10-02T05:03:03.064Z,95410.34
2022-10-02T05:05:45.907Z,95417.91
2022-10-02T05:08:27.639Z,95431.72
2022-10-02T05:11:10.563Z,95413.94
2022-10-02T05:14:12.183Z,95425.88
2022-10-02T05:16:58.930Z,95409.84
2022-10-02T05:19:47.777Z,95426.28
2022-10-02T05:22:45.995Z,95411.63
2022-10-02T05:25:40.807Z,95432.28
2022-10-02T05:28:32.907Z,95418.63
2022-10-02T05:31:15.742Z,95435.13
2022-10-02T05:33:59.431Z,95431.34
2022-10-02T05:36:39.020Z,95419.53
2022-10-02T05:39:10.356Z,95420.97
2022-10-02T05:41:49.419Z,95447.25
2022-10-02T05:44:21.511Z,95426.28
2022-10-02T05:46:56.787Z,95444.03
2022-10-02T05:49:33.651Z,95441.97
2022-10-02T05:52:05.811Z,95454.09
2022-10-02T05:54:44.560Z,95467.13
2022-10-02T05:57:19.071Z,95456.69
2022-10-02T05:59:58.032Z,95443.34
2022-10-02T06:02:39.124Z,95454.38
2022-10-02T06:05:16.116Z,95452.13
2022-10-02T06:07:48.393Z,95467.75
2022-10-02T06:10:20.626Z,95473.34
2022-10-02T06:12:54.927Z,95467.97
2022-10-02T06:15:27.631Z,95417.94
2022-10-02T06:18:00.646Z,95473.34
2022-10-02T06:20:35.117Z,95479.16
2022-10-02T06:23:07.747Z,95488.56
2022-10-02T06:25:44.017Z,95400.22
2022-10-02T06:28:16.823Z,95492.66
2022-10-02T06:30:47.996Z,95462.63
2022-10-02T06:33:19.455Z,95488.56
2022-10-02T06:36:21.434Z,95497.66
2022-10-02T06:39:14.864Z,95499.34
2022-10-02T06:41:54.192Z,95488.81
2022-10-02T06:44:29.088Z,95498.84
2022-10-02T06:47:12.472Z,95493.81
2022-10-02T06:49:52.528Z,95488.47
2022-10-02T06:52:33.311Z,95486.84
2022-10-02T06:55:24.662Z,95460.47
2022-10-02T06:58:05.986Z,95488.72
2022-10-02T07:00:37.825Z,95474.84
2022-10-02T07:03:23.016Z,95494.00
2022-10-02T07:06:17.032Z,95507.75
2022-10-02T07:09:06.802Z,95477.97
2022-10-02T07:11:45.173Z,95493.63
2022-10-02T07:14:30.281Z,95495.50
2022-10-02T07:17:18.294Z,95497.91
2022-10-02T07:20:12.172Z,95454.50
2022-10-02T07:22:56.428Z,95457.41
2022-10-02T07:25:47.210Z,95491.34
2022-10-02T07:28:26.417Z,95489.66
2022-10-02T07:31:03.819Z,95492.97
2022-10-02T07:33:46.285Z,95489.81
2022-10-02T07:36:23.184Z,95520.69
2022-10-02T07:39:04.356Z,95491.19
2022-10-02T07:42:04.058Z,95534.41
2022-10-02T07:44:54.127Z,95545.25
2022-10-02T07:47:38.380Z,95544.78
2022-10-02T07:50:13.219Z,95540.66
2022-10-02T07:52:52.421Z,95541.94
2022-10-02T07:55:21.757Z,95518.94
2022-10-02T07:58:00.420Z,95522.09
2022-10-02T08:00:32.277Z,95570.50
2022-10-02T08:03:04.708Z,95553.84
2022-10-02T08:05:36.029Z,95545.41
2022-10-02T08:08:15.780Z,95544.66
2022-10-02T08:10:48.620Z,95531.31
2022-10-02T08:13:20.569Z,95546.63
2022-10-02T08:15:54.276Z,95544.38
2022-10-02T08:18:34.960Z,95560.47
2022-10-02T08:21:06.025Z,95408.81
2022-10-02T08:23:38.959Z,95567.38
2022-10-02T08:26:13.713Z,95449.59
2022-10-02T08:28:47.556Z,95561.94
2022-10-02T08:31:16.307Z,95574.84
2022-10-02T08:33:45.720Z,95582.94
2022-10-02T08:36:39.092Z,95569.84
2022-10-02T08:39:24.742Z,95566.72
2022-10-02T08:42:28.243Z,95557.31
2022-10-02T08:45:41.003Z,95565.19
2022-10-02T08:48:39.617Z,95570.41
2022-10-02T08:51:33.216Z,95560.75
2022-10-02T08:54:29.656Z,95557.63
2022-10-02T08:57:26.438Z,95489.81
2022-10-02T09:00:21.825Z,95538.56
2022-10-02T09:03:29.053Z,95529.94
2022-10-02T09:06:41.629Z,95545.63
2022-10-02T09:09:51.284Z,95500.13
2022-10-02T09:13:08.096Z,95535.44
2022-10-02T09:16:00.201Z,95533.09
2022-10-02T09:18:52.235Z,95527.28
2022-10-02T09:21:34.418Z,95552.69
2022-10-02T09:24:46.828Z,95549.59
2022-10-02T09:27:53.659Z,95534.72
2022-10-02T09:30:48.528Z,95558.97
2022-10-02T09:33:49.679Z,95547.97
2022-10-02T09:37:08.676Z,95554.13
2022-10-02T09:40:10.613Z,95520.06
2022-10-02T09:43:09.141Z,95544.03
2022-10-02T09:46:14.778Z,95561.34
2022-10-02T09:49:20.244Z,95548.81
2022-10-02T09:52:40.635Z,95570.22
2022-10-02T09:55:55.433Z,95543.25
2022-10-02T09:59:01.820Z,95566.78
2022-10-02T10:01:45.949Z,95562.75
2022-10-02T10:05:05.183Z,95560.56
2022-10-02T10:08:02.648Z,95561.72
2022-10-02T10:10:49.467Z,95554.31
2022-10-02T10:13:45.345Z,95497.25
2022-10-02T10:16:35.673Z,95436.09
2022-10-02T10:19:49.028Z,95544.19
2022-10-02T10:23:01.672Z,95496.50
2022-10-02T10:25:59.883Z,95505.25
2022-10-02T10:29:04.786Z,95532.53
2022-10-02T10:32:14.587Z,95490.53
2022-10-02T10:35:17.429Z,95531.66
2022-10-02T10:38:33.727Z,95523.75
2022-10-02T10:41:31.328Z,95535.63
2022-10-02T10:44:21.949Z,95515.25
2022-10-02T10:47:03.787Z,95546.66
2022-10-02T10:50:02.490Z,95539.66
2022-10-02T10:52:51.552Z,95419.06
2022-10-02T10:55:33.976Z,95536.56
2022-10-02T10:58:16.641Z,95510.72
2022-10-02T11:01:01.864Z,95520.97
2022-10-02T11:04:13.431Z,95522.13
2022-10-02T11:07:07.994Z,95510.22
2022-10-02T11:10:08.715Z,95517.44
2022-10-02T11:13:01.105Z,95506.84
2022-10-02T11:15:52.484Z,95501.34
2022-10-02T11:18:36.187Z,95507.66
2022-10-02T11:21:20.165Z,95516.16
2022-10-02T11:24:15.004Z,95498.25
2022-10-02T11:27:04.827Z,95511.13
2022-10-02T11:29:56.039Z,95521.13
2022-10-02T11:33:00.346Z,95499.84
2022-10-02T11:35:53.816Z,95516.25
2022-10-02T11:38:49.949Z,95518.78
2022-10-02T11:41:45.303Z,95510.75
2022-10-02T11:44:24.757Z,95501.34
2022-10-02T11:47:14.295Z,95501.22
2022-10-02T11:50:07.781Z,95515.22
2022-10-02T11:53:02.726Z,95497.47
2022-10-02T11:55:46.218Z,95483.38
2022-10-02T11:58:28.233Z,95517.16
2022-10-02T12:01:07.951Z,95502.47
2022-10-02T12:03:49.234Z,95516.66
2022-10-02T12:06:32.497Z,95473.91
2022-10-02T12:09:10.849Z,95485.16
2022-10-02T12:11:49.289Z,95473.00
2022-10-02T12:14:32.741Z,95490.34
2022-10-02T12:17:16.485Z,95497.84
2022-10-02T12:20:16.181Z,95497.00
2022-10-02T12:23:12.200Z,95501.00
2022-10-02T12:26:07.409Z,95501.69
2022-10-02T12:28:45.504Z,95491.81
2022-10-02T12:31:20.519Z,95491.44
2022-10-02T12:33:56.868Z,95504.84
2022-10-02T12:36:46.860Z,95486.09
2022-10-02T12:39:35.416Z,95481.38
2022-10-02T12:42:15.659Z,95505.66
2022-10-02T12:45:02.757Z,95504.09
2022-10-02T12:47:49.771Z,95505.28
2022-10-02T12:50:25.734Z,95426.56
2022-10-02T12:53:23.341Z,95511.19
2022-10-02T12:56:17.065Z,95508.78
2022-10-02T12:58:57.318Z,95383.91
2022-10-02T13:02:10.568Z,95504.88
2022-10-02T13:05:23.249Z,95490.41
2022-10-02T13:08:23.153Z,95502.94
2022-10-02T13:11:03.192Z,95500.56
2022-10-02T13:13:48.178Z,95489.84
2022-10-02T13:16:27.943Z,95509.47
2022-10-02T13:19:08.739Z,95512.66
2022-10-02T13:21:48.223Z,95521.19
2022-10-02T13:24:34.112Z,95514.16
2022-10-02T13:27:18.583Z,95521.16
2022-10-02T13:29:55.611Z,95519.56
2022-10-02T13:32:43.121Z,95514.41
2022-10-02T13:35:30.204Z,95509.31
2022-10-02T13:38:15.632Z,95524.91
2022-10-02T13:40:55.812Z,95521.81
2022-10-02T13:43:49.194Z,95533.59
2022-10-02T13:46:34.299Z,95524.97
2022-10-02T13:49:15.621Z,95524.47
2022-10-02T13:51:53.656Z,95517.81
2022-10-02T13:54:40.646Z,95536.53
2022-10-02T13:57:23.082Z,95464.38
2022-10-02T14:00:03.604Z,95541.25
2022-10-02T14:02:46.642Z,95527.22
2022-10-02T14:05:28.068Z,95530.34
2022-10-02T14:08:16.529Z,95517.53
2022-10-02T14:10:57.309Z,95518.41
2022-10-02T14:13:42.235Z,95516.06
2022-10-02T14:16:38.017Z,95524.22
2022-10-02T14:19:37.034Z,95519.50
2022-10-02T14:22:17.816Z,95518.28
2022-10-02T14:25:03.681Z,95517.09
2022-10-02T14:28:13.433Z,95510.03
2022-10-02T14:31:02.851Z,95490.84
2022-10-02T14:33:51.969Z,95486.59
2022-10-02T14:36:26.336Z,95499.19
2022-10-02T14:39:21.565Z,95474.78
2022-10-02T14:42:06.718Z,95489.66
2022-10-02T14:45:05.840Z,95490.84
2022-10-02T14:47:54.092Z,95491.19
2022-10-02T14:50:41.804Z,95487.25
2022-10-02T14:53:35.570Z,95442.06
2022-10-02T14:56:28.944Z,95465.25
2022-10-02T14:59:13.824Z,95436.94
2022-10-02T15:01:46.216Z,95460.44
2022-10-02T15:04:39.894Z,95483.47
2022-10-02T15:07:10.704Z,95479.94
2022-10-02T15:09:59.099Z,95475.19
2022-10-02T15:12:43.857Z,95492.72
2022-10-02T15:15:16.273Z,95503.22
2022-10-02T15:17:57.439Z,95489.88
2022-10-02T15:20:31.776Z,95494.59
2022-10-02T15:23:01.928Z,95494.25
2022-10-02T15:25:45.080Z,95353.31
2022-10-02T15:28:36.319Z,95491.47
2022-10-02T15:31:17.251Z,95491.41
2022-10-02T15:33:53.895Z,95485.91
2022-10-02T15:36:39.992Z,95483.09
2022-10-02T15:39:32.978Z,95508.03
2022-10-02T15:42:06.798Z,95502.16
2022-10-02T15:44:54.941Z,95500.47
2022-10-02T15:47:38.971Z,95505.94
2022-10-02T15:50:23.600Z,95446.22
2022-10-02T15:53:04.906Z,95492.59
2022-10-02T15:55:41.315Z,95362.97
2022-10-02T15:58:24.395Z,95496.41
2022-10-02T16:01:15.095Z,95492.91
2022-10-02T16:03:50.902Z,95484.78
2022-10-02T16:06:34.444Z,95484.78
2022-10-02T16:09:32.578Z,95464.72
2022-10-02T16:12:23.562Z,95481.88
2022-10-02T16:15:03.113Z,95490.47
2022-10-02T16:17:48.617Z,95486.41
2022-10-02T16:20:28.449Z,95492.38
2022-10-02T16:23:14.989Z,95483.78
2022-10-02T16:26:10.662Z,95482.97
2022-10-02T16:29:04.237Z,95475.16
2022-10-02T16:31:52.977Z,95421.69
2022-10-02T16:34:43.387Z,95474.69
2022-10-02T16:37:24.870Z,95421.16
2022-10-02T16:40:00.061Z,95456.88
2022-10-02T16:42:40.143Z,95472.56
2022-10-02T16:45:39.600Z,95469.31
2022-10-02T16:48:14.479Z,95465.66
2022-10-02T16:51:11.547Z,95473.91
2022-10-02T16:53:46.252Z,95474.41
2022-10-02T16:56:21.632Z,95470.09
2022-10-02T16:59:01.118Z,95474.09
2022-10-02T17:01:35.222Z,95474.81
2022-10-02T17:04:18.353Z,95473.25
2022-10-02T17:06:54.027Z,95474.72
2022-10-02T17:09:27.824Z,95472.22
2022-10-02T17:12:00.736Z,95469.66
2022-10-02T17:14:42.915Z,95486.78
2022-10-02T17:17:17.756Z,95483.63
2022-10-02T17:19:51.233Z,95484.38
2022-10-02T17:22:29.517Z,95482.06
2022-10-02T17:25:06.940Z,95475.19
2022-10-02T17:27:48.233Z,95480.94
2022-10-02T17:30:23.830Z,95474.56
2022-10-02T17:33:07.763Z,95480.16
2022-10-02T17:35:43.737Z,95480.16
2022-10-02T17:38:47.251Z,95483.28
2022-10-02T17:41:36.304Z,95477.44
2022-10-02T17:44:19.464Z,95307.91
2022-10-02T17:47:15.014Z,95484.00
2022-10-02T17:49:53.526Z,95478.41
2022-10-02T17:52:48.303Z,95483.00
2022-10-02T17:55:58.689Z,95480.59
2022-10-02T17:58:33.024Z,95482.13
2022-10-02T18:01:12.084Z,95484.50
2022-10-02T18:03:55.698Z,95478.13
2022-10-02T18:06:33.779Z,95415.56
2022-10-02T18:09:25.612Z,95468.75
2022-10-02T18:12:23.320Z,95472.63
2022-10-02T18:15:20.808Z,95388.00
2022-10-02T18:18:01.436Z,95382.94
2022-10-02T18:20:35.462Z,95467.34
2022-10-02T18:23:20.440Z,95474.19
2022-10-02T18:26:03.119Z,95472.53
2022-10-02T18:28:45.796Z,95470.34
2022-10-02T18:31:51.043Z,95464.66
2022-10-02T18:34:43.665Z,95326.28
2022-10-02T18:37:27.962Z,95470.38
2022-10-02T18:40:10.294Z,95458.16
2022-10-02T18:42:50.264Z,95473.28
2022-10-02T18:45:39.061Z,95473.84
2022-10-02T18:48:21.076Z,95468.53
2022-10-02T18:51:06.473Z,95464.31
2022-10-02T18:53:56.247Z,95456.00
2022-10-02T18:56:41.957Z,95474.66
2022-10-02T18:59:19.896Z,95466.44
2022-10-02T19:02:01.547Z,95475.59
2022-10-02T19:04:53.964Z,95475.84
2022-10-02T19:07:27.348Z,95472.00
2022-10-02T19:10:26.259Z,95448.72
2022-10-02T19:12:58.471Z,95458.59
2022-10-02T19:15:29.793Z,95468.75
2022-10-02T19:18:01.028Z,95470.59
2022-10-02T19:20:50.210Z,95465.94
2022-10-02T19:23:24.296Z,95475.06
2022-10-02T19:25:54.732Z,95474.88
2022-10-02T19:28:26.401Z,95476.72
2022-10-02T19:30:57.577Z,95475.13
2022-10-02T19:33:35.965Z,95445.31
2022-10-02T19:36:06.315Z,95417.38
2022-10-02T19:38:37.481Z,95460.44
2022-10-02T19:41:10.004Z,95414.06
2022-10-02T19:43:48.213Z,95333.66
2022-10-02T19:46:19.931Z,95471.38
2022-10-02T19:48:57.015Z,95470.84
2022-10-02T19:51:25.922Z,95459.47
2022-10-02T19:53:58.877Z,95463.59
2022-10-02T19:56:31.988Z,95467.94
2022-10-02T19:59:04.140Z,95459.16
2022-10-02T20:01:42.263Z,95461.22
2022-10-02T20:04:18.368Z,95447.72
2022-10-02T20:06:52.379Z,95460.59
2022-10-02T20:09:26.000Z,95447.41
2022-10-02T20:11:58.283Z,95462.38
2022-10-02T20:14:32.285Z,95463.06
2022-10-02T20:17:10.972Z,95285.69
2022-10-02T20:19:50.835Z,95448.84
2022-10-02T20:22:31.296Z,95447.25
2022-10-02T20:25:04.746Z,95451.88
2022-10-02T20:27:39.628Z,95448.97
2022-10-02T20:30:14.013Z,95422.81
2022-10-02T20:32:47.549Z,95443.91
2022-10-02T20:35:22.530Z,95434.50
2022-10-02T20:37:53.113Z,95462.75
2022-10-02T20:40:25.708Z,95457.25
2022-10-02T20:43:01.123Z,95460.63
2022-10-02T20:45:36.569Z,95454.97
2022-10-02T20:48:25.797Z,95453.88
2022-10-02T20:51:06.444Z,95428.19
2022-10-02T20:54:05.405Z,95429.06
2022-10-02T20:57:13.859Z,95426.38
2022-10-02T21:00:12.934Z,95426.59
2022-10-02T21:03:10.646Z,95428.97
2022-10-02T21:05:58.301Z,95382.94
2022-10-02T21:09:19.209Z,95436.78
2022-10-02T21:12:10.780Z,95396.78
2022-10-02T21:15:05.879Z,95446.16
2022-10-02T21:18:01.699Z,95431.84
2022-10-02T21:21:03.238Z,95439.97
2022-10-02T21:24:14.225Z,95422.13
2022-10-02T21:27:07.985Z,95391.84
2022-10-02T21:29:47.904Z,95431.72
2022-10-02T21:32:36.007Z,95432.75
2022-10-02T21:35:13.911Z,95439.75
2022-10-02T21:38:06.137Z,95436.38
2022-10-02T21:41:08.379Z,95434.22
2022-10-02T21:44:03.697Z,95403.91
2022-10-02T21:47:03.600Z,95428.25
2022-10-02T21:50:18.124Z,95420.59
2022-10-02T21:53:43.106Z,95375.75
2022-10-02T21:56:56.476Z,95426.00
2022-10-02T21:59:55.843Z,95421.69
2022-10-02T22:03:11.559Z,95421.25
2022-10-02T22:06:09.323Z,95411.81
2022-10-02T22:08:55.037Z,95385.78
2022-10-02T22:11:32.545Z,95416.06
2022-10-02T22:14:08.623Z,95401.88
2022-10-02T22:16:51.531Z,95392.84
2022-10-02T22:19:37.719Z,95416.28
2022-10-02T22:22:17.174Z,95431.63
2022-10-02T22:25:08.781Z,95340.38
2022-10-02T22:27:55.666Z,95408.66
2022-10-02T22:30:27.011Z,95403.47
2022-10-02T22:33:11.989Z,95412.34
2022-10-02T22:36:10.861Z,95297.72
2022-10-02T22:38:42.111Z,95400.53
2022-10-02T22:41:22.030Z,95408.19
2022-10-02T22:43:54.033Z,95369.69
2022-10-02T22:46:32.696Z,95400.50
2022-10-02T22:49:06.931Z,95402.72
2022-10-02T22:51:42.992Z,95396.53
2022-10-02T22:54:21.200Z,95380.19
2022-10-02T22:56:58.096Z,95395.19
2022-10-02T22:59:32.848Z,95382.44
2022-10-02T23:02:09.228Z,95378.47
2022-10-02T23:04:45.392Z,95385.84
2022-10-02T23:07:17.565Z,95376.84
2022-10-02T23:09:51.662Z,95366.94
2022-10-02T23:12:28.131Z,95385.53
2022-10-02T23:15:15.934Z,95378.13
2022-10-02T23:17:51.562Z,95386.78
2022-10-02T23:20:28.607Z,95380.47
2022-10-02T23:23:02.804Z,95344.88
2022-10-02T23:25:35.040Z,95328.88
2022-10-02T23:28:08.059Z,95319.00
2022-10-02T23:30:42.118Z,95311.41
2022-10-02T23:33:21.685Z,95363.00
2022-10-02T23:35:56.261Z,95361.31
2022-10-02T23:38:32.316Z,95337.13
2022-10-02T23:41:23.534Z,95334.84
2022-10-02T23:44:01.768Z,95343.38
2022-10-02T23:46:34.773Z,95347.59
2022-10-02T23:49:03.586Z,95341.53
2022-10-02T23:51:46.199Z,95327.13
2022-10-02T23:54:33.780Z,95332.72
2022-10-02T23:57:29.816Z,95338.47
